createdAt,value
2022-10-23T00:08:57.891Z,11.82
2022-10-23T00:19:01.550Z,11.76
2022-10-23T00:29:06.688Z,11.70
2022-10-23T00:39:10.294Z,11.80
2022-10-23T00:49:17.249Z,11.38
2022-10-23T00:59:21.093Z,11.62
2022-10-23T01:09:32.887Z,11.46
2022-10-23T01:19:55.069Z,11.57
2022-10-23T01:30:07.662Z,11.38
2022-10-23T01:40:18.653Z,11.42
2022-10-23T01:50:25.860Z,11.77
2022-10-23T02:00:30.096Z,11.58
2022-10-23T02:10:43.726Z,11.49
2022-10-23T02:20:55.440Z,11.41
2022-10-23T02:31:03.929Z,11.41
2022-10-23T02:41:22.025Z,11.35
2022-10-23T02:51:35.078Z,11.36
2022-10-23T03:01:49.069Z,11.29
2022-10-23T03:11:54.217Z,11.29
2022-10-23T03:21:58.113Z,11.42
2022-10-23T03:32:03.324Z,11.38
2022-10-23T03:42:07.330Z,11.31
2022-10-23T03:52:12.504Z,11.21
2022-10-23T04:02:16.432Z,11.19
2022-10-23T04:12:21.800Z,11.24
2022-10-23T04:22:28.281Z,11.46
2022-10-23T04:32:33.551Z,11.36
2022-10-23T04:42:37.243Z,11.19
2022-10-23T04:52:42.437Z,11.37
2022-10-23T05:02:46.894Z,11.31
2022-10-23T05:12:53.198Z,11.20
2022-10-23T05:23:00.322Z,11.18
2022-10-23T05:33:05.564Z,11.11
2022-10-23T05:43:12.109Z,10.94
2022-10-23T05:53:17.133Z,10.88
2022-10-23T06:03:20.690Z,10.88
2022-10-23T06:13:25.706Z,11.03
2022-10-23T06:23:31.502Z,10.82
2022-10-23T06:33:37.058Z,11.11
2022-10-23T06:43:40.709Z,11.05
2022-10-23T06:53:46.556Z,11.25
2022-10-23T07:03:53.104Z,11.68
2022-10-23T07:13:58.079Z,12.09
2022-10-23T07:24:06.404Z,11.78
2022-10-23T07:34:22.903Z,11.99
2022-10-23T07:44:29.537Z,12.35
2022-10-23T07:54:34.539Z,12.82
2022-10-23T08:04:38.195Z,12.77
2022-10-23T08:14:43.143Z,13.41
2022-10-23T08:24:46.742Z,13.78
2022-10-23T08:34:51.721Z,13.94
2022-10-23T08:45:05.152Z,14.38
2022-10-23T08:55:18.892Z,14.67
2022-10-23T09:05:30.765Z,14.81
2022-10-23T09:15:43.763Z,14.98
2022-10-23T09:25:51.886Z,15.23
2022-10-23T09:36:00.609Z,15.49
2022-10-23T09:46:08.293Z,15.66
2022-10-23T09:56:27.778Z,15.81
2022-10-23T10:06:34.533Z,16.32
2022-10-23T10:16:50.665Z,16.59
2022-10-23T10:27:04.257Z,17.10
2022-10-23T10:37:29.133Z,17.35
2022-10-23T10:47:43.067Z,17.29
2022-10-23T10:57:55.859Z,17.36
2022-10-23T11:08:11.901Z,17.11
2022-10-23T11:18:26.375Z,17.14
2022-10-23T11:28:49.919Z,17.07
2022-10-23T11:39:08.317Z,17.16
2022-10-23T11:49:24.039Z,17.45
2022-10-23T11:59:31.816Z,17.47
2022-10-23T12:09:43.208Z,17.59
2022-10-23T12:19:53.343Z,18.23
2022-10-23T12:30:15.606Z,18.68
2022-10-23T12:40:20.685Z,18.69
2022-10-23T12:50:27.467Z,18.49
2022-10-23T13:00:32.427Z,18.64
2022-10-23T13:10:37.119Z,18.67
2022-10-23T13:20:44.846Z,18.43
2022-10-23T13:31:08.178Z,18.39
2022-10-23T13:41:20.945Z,18.47
2022-10-23T13:51:27.839Z,18.75
2022-10-23T14:01:35.973Z,18.62
2022-10-23T14:11:40.403Z,18.62
2022-10-23T14:21:45.395Z,18.44
2022-10-23T14:31:49.034Z,18.35
2022-10-23T14:41:54.674Z,18.36
2022-10-23T14:51:58.771Z,18.33
2022-10-23T15:02:04.507Z,18.08
2022-10-23T15:12:09.592Z,18.00
2022-10-23T15:22:14.985Z,17.77
2022-10-23T15:32:19.434Z,17.79
2022-10-23T15:42:24.764Z,17.57
2022-10-23T15:52:28.642Z,17.55
2022-10-23T16:02:33.789Z,17.36
2022-10-23T16:12:37.642Z,17.24
2022-10-23T16:22:44.955Z,17.31
2022-10-23T16:32:51.449Z,17.15
2022-10-23T16:42:57.607Z,17.20
2022-10-23T16:53:01.336Z,17.23
2022-10-23T17:03:06.531Z,17.15
2022-10-23T17:13:10.231Z,16.99
2022-10-23T17:23:15.261Z,16.96
2022-10-23T17:33:19.286Z,16.86
2022-10-23T17:43:24.332Z,17.06
2022-10-23T17:53:28.044Z,16.63
2022-10-23T18:03:33.338Z,16.77
2022-10-23T18:13:38.067Z,16.63
2022-10-23T18:23:43.669Z,16.42
2022-10-23T18:33:47.978Z,16.43
2022-10-23T18:43:54.222Z,16.39
2022-10-23T18:54:00.656Z,16.47
2022-10-23T19:04:08.667Z,16.40
2022-10-23T19:14:12.559Z,16.26
2022-10-23T19:24:22.315Z,16.12
2022-10-23T19:34:26.576Z,15.90
2022-10-23T19:44:31.975Z,15.84
2022-10-23T19:54:37.706Z,15.75
2022-10-23T20:04:42.961Z,15.84
2022-10-23T20:14:46.661Z,15.83
2022-10-23T20:24:52.301Z,15.80
2022-10-23T20:34:56.258Z,15.69
2022-10-23T20:45:03.627Z,15.56
2022-10-23T20:55:08.801Z,15.50
2022-10-23T21:05:17.129Z,15.45
2022-10-23T21:15:21.356Z,15.37
2022-10-23T21:25:26.685Z,15.22
2022-10-23T21:35:30.417Z,15.13
2022-10-23T21:45:36.537Z,15.03
2022-10-23T21:55:40.382Z,15.02
2022-10-23T22:05:45.416Z,14.95
2022-10-23T22:15:49.166Z,14.74
2022-10-23T22:25:54.279Z,14.69
2022-10-23T22:36:02.781Z,14.62
2022-10-23T22:46:10.457Z,14.63
2022-10-23T22:56:16.637Z,14.35
2022-10-23T23:06:23.050Z,14.19
2022-10-23T23:16:29.907Z,14.26
2022-10-23T23:26:34.881Z,14.12
2022-10-23T23:36:38.607Z,13.95
2022-10-23T23:46:43.575Z,13.71
2022-10-23T23:56:47.236Z,13.66
